Time;durP1;ratioP1;P1;durP2;ratioP2;P2;SDS_P1;SDS_P2;PMS_P1;PMS_P2;Temp;Humidity;BMP_temperature;BMP_pressure;BME280_temperature;BME280_humidity;BME280_pressure;Samples;Min_cycle;Max_cycle;Signal;HPM_P1;HPM_P2
2021/04/22 00:02:04;;;;;;;2.10;0.57;;;4.80;60.90;;;;;;5032689;28;20044;-76
2021/04/22 00:04:30;;;;;;;1.17;0.63;;;4.80;60.90;;;;;;5033460;28;20104;-77
2021/04/22 00:06:56;;;;;;;0.47;0.45;;;4.70;61.00;;;;;;5032575;28;20035;-77
2021/04/22 00:09:21;;;;;;;0.80;0.50;;;4.70;61.10;;;;;;5033912;28;20025;-76
2021/04/22 00:11:48;;;;;;;0.40;0.40;;;4.70;61.20;;;;;;5033985;28;20369;-75
2021/04/22 00:14:14;;;;;;;0.70;0.43;;;4.70;61.20;;;;;;5033236;28;20025;-76
2021/04/22 00:16:40;;;;;;;0.50;0.50;;;4.70;61.20;;;;;;5033481;28;20021;-75
2021/04/22 00:19:06;;;;;;;2.10;0.43;;;4.60;61.20;;;;;;5033633;28;20061;-77
2021/04/22 00:21:32;;;;;;;0.98;0.70;;;4.60;61.30;;;;;;5034117;28;20029;-77
2021/04/22 00:23:59;;;;;;;1.42;0.60;;;4.60;61.50;;;;;;5034176;28;20025;-76
2021/04/22 00:26:25;;;;;;;0.57;0.47;;;4.60;61.50;;;;;;5033790;28;20037;-77
2021/04/22 00:28:51;;;;;;;0.75;0.43;;;4.50;61.80;;;;;;5033124;28;20041;-77
2021/04/22 00:31:17;;;;;;;0.40;0.40;;;4.50;61.50;;;;;;5033632;28;20068;-77
2021/04/22 00:33:42;;;;;;;0.77;0.77;;;4.50;61.50;;;;;;5032399;28;20022;-77
2021/04/22 00:36:08;;;;;;;0.85;0.40;;;4.60;61.50;;;;;;5048951;28;20363;-77
2021/04/22 00:38:34;;;;;;;0.52;0.52;;;4.60;61.50;;;;;;5033707;28;20092;-76
2021/04/22 00:41:00;;;;;;;2.60;0.57;;;4.60;61.60;;;;;;5033596;28;20470;-76
2021/04/22 00:43:25;;;;;;;0.47;0.45;;;4.60;61.60;;;;;;5048188;28;20374;-76
2021/04/22 00:45:51;;;;;;;0.40;0.40;;;4.60;61.60;;;;;;5033700;28;20044;-77
2021/04/22 00:48:25;;;;;;;0.68;0.50;;;4.60;61.60;;;;;;5033317;28;20061;-76
2021/04/22 00:50:51;;;;;;;0.63;0.50;;;4.60;61.70;;;;;;5033512;28;20017;-76
2021/04/22 00:53:17;;;;;;;1.75;0.82;;;4.60;61.70;;;;;;5033473;28;20485;-75
2021/04/22 00:55:43;;;;;;;0.52;0.47;;;4.50;61.80;;;;;;5033698;28;20520;-76
2021/04/22 00:58:09;;;;;;;0.63;0.40;;;4.50;61.90;;;;;;5032925;28;20021;-77
2021/04/22 01:00:51;;;;;;;0.47;0.47;;;4.50;62.10;;;;;;5033546;28;20030;-76
2021/04/22 01:03:17;;;;;;;1.98;0.65;;;4.50;62.10;;;;;;5033405;28;20021;-76
2021/04/22 01:05:47;;;;;;;0.30;0.30;;;4.50;62.10;;;;;;5033265;28;20083;-76
2021/04/22 01:08:13;;;;;;;0.47;0.47;;;4.50;62.10;;;;;;5032152;28;20470;-77
2021/04/22 01:10:39;;;;;;;0.73;0.65;;;4.50;62.20;;;;;;5032624;28;20548;-77
2021/04/22 01:13:05;;;;;;;2.05;0.90;;;4.50;62.20;;;;;;5033097;28;20033;-77
2021/04/22 01:15:31;;;;;;;2.03;0.95;;;4.40;62.30;;;;;;5033098;28;20074;-76
2021/04/22 01:17:58;;;;;;;0.95;0.55;;;4.40;62.40;;;;;;5037136;28;20116;-76
2021/04/22 01:20:27;;;;;;;0.80;0.40;;;4.30;62.50;;;;;;5037068;28;20028;-77
2021/04/22 01:22:54;;;;;;;0.40;0.40;;;4.30;62.60;;;;;;5037246;28;20470;-77
2021/04/22 01:25:23;;;;;;;0.50;0.30;;;4.30;62.70;;;;;;5036528;28;20458;-76
2021/04/22 01:27:48;;;;;;;0.50;0.50;;;4.20;62.70;;;;;;5036629;28;20477;-76
2021/04/22 01:30:21;;;;;;;0.43;0.43;;;4.20;62.80;;;;;;5036577;28;20071;-77
2021/04/22 01:32:47;;;;;;;0.60;0.60;;;4.20;62.90;;;;;;5037082;28;20036;-76
2021/04/22 01:35:15;;;;;;;0.70;0.70;;;4.10;62.80;;;;;;5037025;28;20052;-75
2021/04/22 01:37:42;;;;;;;1.25;0.47;;;4.20;63.00;;;;;;5036430;28;20433;-75
2021/04/22 01:40:09;;;;;;;0.57;0.50;;;4.20;62.90;;;;;;5035163;28;20017;-77
2021/04/22 01:42:34;;;;;;;2.03;1.17;;;4.20;62.90;;;;;;5036385;28;20121;-76
2021/04/22 01:45:01;;;;;;;0.52;0.50;;;4.20;62.80;;;;;;5036675;28;20093;-77
2021/04/22 01:47:26;;;;;;;0.77;0.60;;;4.20;62.80;;;;;;5035711;28;20041;-76
2021/04/22 01:49:52;;;;;;;0.52;0.45;;;4.30;62.80;;;;;;5036645;28;20025;-77
2021/04/22 01:52:18;;;;;;;1.90;0.60;;;4.30;62.80;;;;;;5035805;28;20462;-77
2021/04/22 01:54:43;;;;;;;1.10;0.50;;;4.30;62.80;;;;;;5035897;28;20112;-75
2021/04/22 01:57:09;;;;;;;0.38;0.38;;;4.20;62.80;;;;;;5036355;28;20034;-75
2021/04/22 01:59:35;;;;;;;0.73;0.35;;;4.20;62.90;;;;;;5036368;28;20037;-75
2021/04/22 02:02:00;;;;;;;0.50;0.50;;;4.20;63.10;;;;;;5036195;28;20017;-76
2021/04/22 02:04:26;;;;;;;0.55;0.50;;;4.20;63.10;;;;;;5036290;28;20029;-76
2021/04/22 02:06:51;;;;;;;0.45;0.45;;;4.20;63.20;;;;;;5036077;28;20485;-77
2021/04/22 02:09:17;;;;;;;0.77;0.45;;;4.10;63.20;;;;;;5036033;28;20080;-76
2021/04/22 02:11:43;;;;;;;0.50;0.50;;;4.10;63.30;;;;;;5036338;28;20025;-76
2021/04/22 02:14:08;;;;;;;0.85;0.45;;;4.10;63.40;;;;;;5035926;28;20025;-77
2021/04/22 02:16:34;;;;;;;0.43;0.43;;;4.10;63.50;;;;;;5035938;28;20542;-76
2021/04/22 02:18:59;;;;;;;0.73;0.73;;;4.10;63.50;;;;;;5036135;28;20100;-76
2021/04/22 02:21:25;;;;;;;1.40;0.82;;;4.00;63.50;;;;;;5035648;28;20022;-76
2021/04/22 02:23:50;;;;;;;0.75;0.75;;;4.00;63.60;;;;;;5034285;28;20506;-77
2021/04/22 02:26:16;;;;;;;0.40;0.40;;;4.00;63.60;;;;;;5035633;28;20543;-77
2021/04/22 02:28:44;;;;;;;0.52;0.50;;;4.00;64.30;;;;;;5035655;28;20497;-77
2021/04/22 02:31:10;;;;;;;0.50;0.50;;;4.00;63.70;;;;;;5035631;28;20022;-77
2021/04/22 02:33:35;;;;;;;1.50;0.85;;;4.00;63.60;;;;;;5035933;28;20025;-77
2021/04/22 02:36:01;;;;;;;0.80;0.57;;;4.00;63.60;;;;;;5035713;28;20024;-77
2021/04/22 02:38:27;;;;;;;1.25;0.93;;;4.00;63.70;;;;;;5033793;28;20200;-76
2021/04/22 02:40:52;;;;;;;2.05;0.68;;;4.00;63.80;;;;;;5035436;28;20049;-77
2021/04/22 02:43:19;;;;;;;0.57;0.50;;;4.00;63.90;;;;;;5035342;28;20064;-76
2021/04/22 02:45:55;;;;;;;0.75;0.50;;;4.00;63.90;;;;;;5035412;28;20076;-77
2021/04/22 02:48:23;;;;;;;0.70;0.70;;;3.90;63.90;;;;;;5035255;28;20425;-77
2021/04/22 02:50:51;;;;;;;0.60;0.60;;;3.90;63.90;;;;;;5035454;28;20104;-76
2021/04/22 02:53:17;;;;;;;0.55;0.55;;;3.90;64.00;;;;;;5035060;28;20512;-76
2021/04/22 02:55:45;;;;;;;1.23;0.63;;;3.90;64.00;;;;;;5035422;28;20025;-77
2021/04/22 02:58:11;;;;;;;1.40;0.88;;;3.90;64.10;;;;;;5035391;28;20025;-76
2021/04/22 03:00:38;;;;;;;0.65;0.60;;;3.90;64.20;;;;;;5035377;28;20024;-77
2021/04/22 03:03:04;;;;;;;0.93;0.70;;;4.00;64.20;;;;;;5035305;28;20538;-77
2021/04/22 03:05:30;;;;;;;0.75;0.47;;;4.00;64.20;;;;;;5035238;28;20028;-76
2021/04/22 03:07:55;;;;;;;1.33;0.73;;;4.00;64.20;;;;;;5034716;28;20033;-75
2021/04/22 03:10:23;;;;;;;0.55;0.55;;;4.10;64.20;;;;;;5033767;28;20021;-77
2021/04/22 03:12:49;;;;;;;0.60;0.60;;;4.10;64.10;;;;;;5034974;28;20026;-76
2021/04/22 03:15:15;;;;;;;3.22;0.77;;;4.10;64.10;;;;;;5034408;28;20159;-77
2021/04/22 03:17:42;;;;;;;1.15;0.70;;;4.10;64.00;;;;;;5034988;28;20029;-77
2021/04/22 03:20:08;;;;;;;1.30;0.85;;;4.20;64.10;;;;;;5034872;28;20547;-76
2021/04/22 03:22:34;;;;;;;0.85;0.60;;;4.20;64.20;;;;;;5034455;28;20128;-76
2021/04/22 03:25:00;;;;;;;0.90;0.70;;;4.20;64.20;;;;;;5033583;28;20044;-77
2021/04/22 03:27:28;;;;;;;0.95;0.60;;;4.20;64.30;;;;;;5034605;28;20032;-76
2021/04/22 03:29:55;;;;;;;1.95;0.93;;;4.10;64.40;;;;;;5034505;28;20032;-77
2021/04/22 03:32:20;;;;;;;0.65;0.50;;;4.10;64.50;;;;;;5034955;28;20108;-77
2021/04/22 03:34:46;;;;;;;0.82;0.70;;;4.10;64.60;;;;;;5034802;28;20064;-77
2021/04/22 03:37:12;;;;;;;1.05;0.70;;;4.00;64.60;;;;;;5033772;28;20104;-77
2021/04/22 03:39:37;;;;;;;1.48;0.50;;;4.00;64.60;;;;;;5033544;28;20033;-77
2021/04/22 03:42:03;;;;;;;1.33;0.80;;;4.00;64.70;;;;;;5033854;28;20029;-78
2021/04/22 03:44:28;;;;;;;0.93;0.60;;;3.90;64.80;;;;;;5034342;28;20032;-77
2021/04/22 03:46:54;;;;;;;1.20;0.60;;;3.90;64.80;;;;;;5033747;28;20362;-78
2021/04/22 03:49:19;;;;;;;0.43;0.43;;;3.90;64.90;;;;;;5034276;28;20405;-77
2021/04/22 03:51:45;;;;;;;1.40;0.70;;;3.80;65.00;;;;;;5033969;28;20025;-77
2021/04/22 03:54:11;;;;;;;0.45;0.43;;;3.80;65.00;;;;;;5034086;28;20029;-77
2021/04/22 03:56:36;;;;;;;0.98;0.68;;;3.80;65.00;;;;;;5034560;28;20014;-77
2021/04/22 03:59:02;;;;;;;0.95;0.52;;;3.90;65.00;;;;;;5034593;28;20037;-77
2021/04/22 04:01:27;;;;;;;0.70;0.50;;;3.90;64.90;;;;;;5034931;28;20096;-77
2021/04/22 04:03:53;;;;;;;1.00;0.60;;;3.90;64.80;;;;;;5034155;28;20474;-76
2021/04/22 04:06:19;;;;;;;1.20;0.47;;;4.00;64.80;;;;;;5033596;28;20053;-76
2021/04/22 04:08:44;;;;;;;0.73;0.70;;;4.10;64.80;;;;;;5033843;28;20061;-76
2021/04/22 04:11:10;;;;;;;0.57;0.57;;;4.10;64.60;;;;;;5033495;28;20032;-76
2021/04/22 04:13:35;;;;;;;0.30;0.22;;;4.30;64.60;;;;;;5049326;28;20017;-77
2021/04/22 04:16:01;;;;;;;0.82;0.32;;;4.30;64.40;;;;;;5034050;28;20378;-77
2021/04/22 04:18:26;;;;;;;0.43;0.43;;;4.40;64.30;;;;;;5033999;28;20025;-76
2021/04/22 04:20:52;;;;;;;0.40;0.40;;;4.40;64.40;;;;;;5033452;28;20104;-77
2021/04/22 04:23:17;;;;;;;0.50;0.50;;;4.40;64.30;;;;;;5033837;28;20432;-77
2021/04/22 04:25:43;;;;;;;0.50;0.50;;;4.40;64.40;;;;;;5033989;28;20039;-77
2021/04/22 04:28:09;;;;;;;0.50;0.50;;;4.40;64.40;;;;;;5033819;28;20036;-77
2021/04/22 04:30:34;;;;;;;0.30;0.30;;;4.50;64.30;;;;;;5033755;28;20017;-77
2021/04/22 04:33:00;;;;;;;0.22;0.22;;;4.50;64.20;;;;;;5034280;28;20033;-77
2021/04/22 04:35:26;;;;;;;0.30;0.30;;;4.60;64.20;;;;;;5033299;28;20105;-78
2021/04/22 04:37:52;;;;;;;0.40;0.40;;;4.60;64.20;;;;;;5033306;28;20020;-77
2021/04/22 04:40:18;;;;;;;0.40;0.40;;;4.60;64.20;;;;;;5033595;28;20022;-78
2021/04/22 04:42:44;;;;;;;1.55;0.50;;;4.60;64.20;;;;;;5033508;28;20075;-77
2021/04/22 04:45:14;;;;;;;0.73;0.43;;;4.60;64.10;;;;;;5033824;28;20136;-77
2021/04/22 04:47:39;;;;;;;1.10;1.08;;;4.70;64.20;;;;;;5033244;28;20053;-77
2021/04/22 04:50:06;;;;;;;0.75;0.63;;;4.70;64.20;;;;;;5034584;28;20032;-77
2021/04/22 04:52:32;;;;;;;1.38;0.60;;;4.70;64.10;;;;;;5037674;28;20056;-77
2021/04/22 04:54:57;;;;;;;0.40;0.40;;;4.80;64.10;;;;;;5038012;28;20028;-76
2021/04/22 04:57:23;;;;;;;0.50;0.50;;;4.80;64.10;;;;;;5038199;28;20029;-77
2021/04/22 04:59:49;;;;;;;0.47;0.47;;;4.80;64.00;;;;;;5036497;28;20025;-76
2021/04/22 05:02:14;;;;;;;0.40;0.40;;;4.90;64.00;;;;;;5037581;28;20032;-76
2021/04/22 05:04:40;;;;;;;0.70;0.70;;;4.90;63.90;;;;;;5037208;28;20378;-76
2021/04/22 05:07:05;;;;;;;0.32;0.32;;;4.90;63.80;;;;;;5036908;28;20051;-75
2021/04/22 05:09:31;;;;;;;0.70;0.60;;;5.00;64.40;;;;;;5037327;28;20025;-77
2021/04/22 05:11:57;;;;;;;0.52;0.52;;;5.00;63.80;;;;;;5037337;28;20470;-75
2021/04/22 05:14:22;;;;;;;0.60;0.60;;;5.10;63.70;;;;;;5037691;28;20021;-76
2021/04/22 05:16:48;;;;;;;0.75;0.50;;;5.20;63.60;;;;;;5036951;28;20071;-76
2021/04/22 05:19:13;;;;;;;0.30;0.30;;;5.20;63.60;;;;;;5036954;28;20041;-76
2021/04/22 05:21:39;;;;;;;0.85;0.43;;;5.20;64.20;;;;;;5037141;28;20374;-76
2021/04/22 05:24:05;;;;;;;1.00;0.43;;;5.30;63.70;;;;;;5052688;28;20053;-76
2021/04/22 05:26:31;;;;;;;0.40;0.40;;;5.30;63.70;;;;;;5037364;28;20076;-77
2021/04/22 05:28:56;;;;;;;0.93;0.50;;;5.30;63.60;;;;;;5036744;28;20481;-75
2021/04/22 05:31:23;;;;;;;1.10;0.40;;;5.40;63.60;;;;;;5036530;28;20029;-76
2021/04/22 05:33:48;;;;;;;1.23;1.15;;;5.40;63.60;;;;;;5036374;28;20021;-77
2021/04/22 05:36:14;;;;;;;0.45;0.45;;;5.40;63.50;;;;;;5035723;28;20104;-78
2021/04/22 05:38:40;;;;;;;0.35;0.35;;;5.40;63.50;;;;;;5036937;28;20018;-76
2021/04/22 05:41:06;;;;;;;0.60;0.40;;;5.50;63.60;;;;;;5036675;28;20474;-76
2021/04/22 05:43:32;;;;;;;1.27;0.50;;;5.50;63.50;;;;;;5048601;28;20082;-76
2021/04/22 05:45:58;;;;;;;0.50;0.50;;;5.50;63.50;;;;;;5035835;28;20155;-76
2021/04/22 05:48:23;;;;;;;0.40;0.38;;;5.50;63.50;;;;;;5036252;28;20048;-75
2021/04/22 05:50:49;;;;;;;0.75;0.60;;;5.50;63.60;;;;;;5036687;28;20025;-75
2021/04/22 05:53:16;;;;;;;0.57;0.40;;;5.50;63.50;;;;;;5036692;28;20167;-76
2021/04/22 05:55:41;;;;;;;0.60;0.60;;;5.60;63.50;;;;;;5036225;28;20385;-76
2021/04/22 05:58:07;;;;;;;0.55;0.55;;;5.60;63.40;;;;;;5036248;28;20025;-76
2021/04/22 06:00:33;;;;;;;0.40;0.40;;;5.60;63.40;;;;;;5035867;28;20022;-76
2021/04/22 06:02:59;;;;;;;0.40;0.40;;;5.70;63.20;;;;;;5034955;28;20108;-76
2021/04/22 06:05:28;;;;;;;0.70;0.40;;;5.90;63.00;;;;;;5036147;28;20466;-77
2021/04/22 06:07:54;;;;;;;0.52;0.52;;;6.10;62.70;;;;;;5036128;28;20055;-76
2021/04/22 06:10:21;;;;;;;0.57;0.57;;;6.30;62.40;;;;;;5036176;28;20022;-76
2021/04/22 06:12:47;;;;;;;0.47;0.47;;;6.40;62.20;;;;;;5035985;28;20038;-76
2021/04/22 06:15:13;;;;;;;0.50;0.50;;;6.60;61.90;;;;;;5034704;28;20417;-77
2021/04/22 06:17:39;;;;;;;0.55;0.55;;;6.80;61.70;;;;;;5035663;28;20045;-78
2021/04/22 06:20:10;;;;;;;0.40;0.40;;;7.00;61.60;;;;;;5035832;28;20100;-77
2021/04/22 06:22:36;;;;;;;0.45;0.45;;;7.10;61.50;;;;;;5036070;28;20025;-78
2021/04/22 06:25:03;;;;;;;0.47;0.47;;;7.20;61.40;;;;;;5035808;28;20029;-75
2021/04/22 06:27:28;;;;;;;0.70;0.60;;;7.30;61.30;;;;;;5035650;28;20040;-78
2021/04/22 06:29:54;;;;;;;0.52;0.52;;;7.40;61.30;;;;;;5035179;28;20430;-77
2021/04/22 06:32:19;;;;;;;0.88;0.65;;;7.50;61.30;;;;;;5016220;28;20032;-76
2021/04/22 06:34:46;;;;;;;1.40;0.70;;;7.50;61.30;;;;;;5015923;28;20040;-75
2021/04/22 06:37:11;;;;;;;1.98;0.75;;;7.50;61.40;;;;;;5031288;28;20025;-77
2021/04/22 06:39:37;;;;;;;1.67;1.23;;;7.50;61.50;;;;;;5015276;28;20025;-78
2021/04/22 06:42:02;;;;;;;1.17;0.80;;;7.50;61.70;;;;;;5015279;28;20061;-77
2021/04/22 06:44:28;;;;;;;0.40;0.40;;;7.50;61.80;;;;;;5015317;28;20106;-76
2021/04/22 06:46:54;;;;;;;1.75;0.68;;;7.50;62.50;;;;;;5015830;28;20582;-78
2021/04/22 06:49:19;;;;;;;0.70;0.70;;;7.60;61.90;;;;;;5015751;28;20510;-79
2021/04/22 06:51:45;;;;;;;0.95;0.90;;;7.50;61.80;;;;;;5015694;28;20057;-77
2021/04/22 06:54:11;;;;;;;1.17;0.80;;;7.50;61.90;;;;;;5029740;28;20030;-78
2021/04/22 06:56:37;;;;;;;1.35;1.25;;;7.50;62.00;;;;;;5018747;28;20022;-77
2021/04/22 06:59:04;;;;;;;1.95;1.75;;;7.50;62.00;;;;;;5033799;28;20028;-77
2021/04/22 07:01:30;;;;;;;1.08;0.95;;;7.40;62.20;;;;;;5030165;28;20378;-77
2021/04/22 07:03:55;;;;;;;1.00;0.80;;;7.40;62.30;;;;;;5024776;28;20029;-77
2021/04/22 07:06:22;;;;;;;1.48;0.82;;;7.40;62.20;;;;;;5035231;28;20028;-77
2021/04/22 07:08:48;;;;;;;2.78;2.10;;;7.40;62.10;;;;;;5034903;28;20486;-77
2021/04/22 07:11:14;;;;;;;1.25;1.10;;;7.50;62.00;;;;;;5031746;28;20017;-78
2021/04/22 07:13:40;;;;;;;3.67;1.50;;;7.50;61.80;;;;;;5020638;28;20472;-78
2021/04/22 07:16:06;;;;;;;2.35;1.70;;;7.60;61.70;;;;;;5034837;28;20124;-77
2021/04/22 07:18:31;;;;;;;2.88;1.13;;;7.60;61.70;;;;;;5034896;28;20025;-78
2021/04/22 07:20:57;;;;;;;0.73;0.73;;;7.70;61.80;;;;;;5034608;28;20022;-78
2021/04/22 07:23:23;;;;;;;1.27;1.10;;;7.80;61.60;;;;;;5024424;28;20485;-78
2021/04/22 07:25:50;;;;;;;1.20;1.10;;;8.00;61.20;;;;;;5016215;28;20030;-77
2021/04/22 07:28:16;;;;;;;3.25;1.10;;;8.00;61.00;;;;;;5024948;28;20049;-78
2021/04/22 07:30:42;;;;;;;3.03;1.38;;;8.00;61.30;;;;;;5031483;28;20636;-77
2021/04/22 07:33:09;;;;;;;2.58;1.30;;;8.20;61.10;;;;;;5012391;28;20048;-77
2021/04/22 07:35:36;;;;;;;4.65;1.30;;;8.30;60.90;;;;;;5012091;28;20030;-77
2021/04/22 07:38:04;;;;;;;1.85;1.40;;;8.30;60.90;;;;;;5019016;28;20032;-77
2021/04/22 07:40:30;;;;;;;4.53;1.45;;;8.30;60.90;;;;;;5031827;28;20390;-77
2021/04/22 07:42:56;;;;;;;2.92;1.10;;;8.20;61.00;;;;;;5031515;28;20116;-77
2021/04/22 07:45:26;;;;;;;1.25;1.02;;;8.20;61.10;;;;;;5022556;28;20101;-78
2021/04/22 07:47:52;;;;;;;1.13;1.02;;;8.10;61.30;;;;;;5027574;28;20057;-78
2021/04/22 07:50:20;;;;;;;1.80;1.20;;;8.30;61.20;;;;;;5027190;28;20057;-77
2021/04/22 07:52:46;;;;;;;1.35;1.17;;;8.50;60.80;;;;;;5033013;28;20025;-77
2021/04/22 07:55:16;;;;;;;1.67;1.23;;;8.60;60.50;;;;;;5030838;28;20036;-77
2021/04/22 07:57:42;;;;;;;2.28;1.10;;;8.90;60.10;;;;;;5023322;28;20021;-78
2021/04/22 08:00:10;;;;;;;2.03;1.30;;;9.10;59.80;;;;;;5028689;28;20049;-78
2021/04/22 08:02:36;;;;;;;1.88;1.50;;;9.30;59.60;;;;;;5023625;28;20037;-77
2021/04/22 08:05:03;;;;;;;1.33;1.25;;;9.40;59.50;;;;;;5033525;28;20021;-78
2021/04/22 08:07:29;;;;;;;1.70;1.23;;;9.50;59.40;;;;;;5033412;28;20469;-77
2021/04/22 08:09:54;;;;;;;5.05;1.48;;;9.50;59.50;;;;;;5048529;28;20151;-76
2021/04/22 08:12:20;;;;;;;4.60;1.20;;;9.30;59.80;;;;;;5043342;28;20473;-77
2021/04/22 08:14:45;;;;;;;1.63;1.27;;;9.10;60.30;;;;;;5033595;28;20474;-77
2021/04/22 08:17:14;;;;;;;1.90;1.00;;;8.90;60.60;;;;;;5024774;28;20367;-76
2021/04/22 08:19:39;;;;;;;3.30;1.00;;;8.90;60.60;;;;;;5026674;28;20030;-78
2021/04/22 08:22:05;;;;;;;2.92;1.48;;;9.00;60.40;;;;;;5032785;28;20030;-76
2021/04/22 08:24:31;;;;;;;2.22;1.80;;;9.10;60.00;;;;;;5032001;28;20030;-77
2021/04/22 08:26:56;;;;;;;2.80;1.75;;;9.40;59.70;;;;;;5031944;28;20021;-76
2021/04/22 08:29:22;;;;;;;1.60;1.10;;;9.80;59.00;;;;;;5033463;28;20029;-78
2021/04/22 08:31:48;;;;;;;1.75;1.08;;;10.00;58.50;;;;;;5033376;28;20021;-77
2021/04/22 08:34:14;;;;;;;1.52;1.35;;;10.20;58.30;;;;;;5033335;28;20030;-75
2021/04/22 08:36:40;;;;;;;3.58;1.10;;;10.20;58.10;;;;;;5033512;28;20029;-76
2021/04/22 08:39:07;;;;;;;1.27;0.88;;;10.00;58.70;;;;;;5033932;28;20044;-78
2021/04/22 08:41:34;;;;;;;1.27;0.98;;;9.70;59.30;;;;;;5033291;28;20049;-76
2021/04/22 08:44:02;;;;;;;0.90;0.90;;;9.60;59.40;;;;;;5033446;28;20018;-76
2021/04/22 08:46:34;;;;;;;1.42;0.95;;;9.60;59.50;;;;;;5033507;28;20534;-76
2021/04/22 08:48:59;;;;;;;2.00;1.20;;;9.70;59.30;;;;;;5032826;28;20099;-76
2021/04/22 08:51:25;;;;;;;1.85;1.55;;;9.80;59.10;;;;;;5033196;28;20112;-76
2021/04/22 08:53:51;;;;;;;3.67;1.00;;;9.90;58.90;;;;;;5033001;28;20028;-77
2021/04/22 08:56:20;;;;;;;1.25;1.00;;;10.10;58.80;;;;;;5032736;28;20032;-76
2021/04/22 08:58:46;;;;;;;1.50;1.08;;;10.20;58.40;;;;;;5032920;28;20612;-76
2021/04/22 09:01:17;;;;;;;3.67;1.40;;;10.20;58.30;;;;;;5033055;28;20041;-78
2021/04/22 09:03:44;;;;;;;1.60;1.15;;;10.10;58.30;;;;;;5033217;28;20374;-77
2021/04/22 09:06:11;;;;;;;1.20;1.10;;;10.10;58.40;;;;;;5033075;28;20487;-77
2021/04/22 09:08:44;;;;;;;1.52;1.10;;;10.10;58.30;;;;;;5031758;28;20064;-77
2021/04/22 09:11:13;;;;;;;1.38;0.98;;;10.20;58.20;;;;;;5032912;28;20018;-75
2021/04/22 09:13:39;;;;;;;0.80;0.80;;;10.30;58.10;;;;;;5033262;28;20535;-77
2021/04/22 09:16:08;;;;;;;1.95;1.25;;;10.50;57.90;;;;;;5032848;28;20021;-75
2021/04/22 09:18:39;;;;;;;1.45;1.10;;;10.60;57.40;;;;;;5033137;28;20033;-76
2021/04/22 09:21:05;;;;;;;2.50;1.60;;;10.60;57.60;;;;;;5033306;28;20030;-77
2021/04/22 09:23:30;;;;;;;3.83;1.80;;;10.60;57.50;;;;;;5031397;28;20112;-76
2021/04/22 09:26:05;;;;;;;1.85;1.30;;;10.40;57.30;;;;;;5033390;28;20057;-75
2021/04/22 09:28:43;;;;;;;1.33;1.08;;;10.30;57.40;;;;;;5033038;28;20029;-77
2021/04/22 09:31:22;;;;;;;1.70;1.55;;;10.40;57.50;;;;;;5033494;28;20363;-79
2021/04/22 09:34:10;;;;;;;1.73;0.90;;;10.60;57.10;;;;;;5033126;28;20018;-77
2021/04/22 09:36:50;;;;;;;2.58;1.60;;;10.80;56.90;;;;;;5034388;28;20034;-75
2021/04/22 09:39:24;;;;;;;1.80;1.30;;;10.60;57.00;;;;;;5036026;28;20057;-78
2021/04/22 09:41:54;;;;;;;1.92;1.02;;;10.40;57.40;;;;;;5036719;28;20521;-76
2021/04/22 09:44:19;;;;;;;2.28;1.33;;;10.30;57.60;;;;;;5036599;28;20147;-73
2021/04/22 09:46:47;;;;;;;1.98;1.17;;;10.40;57.10;;;;;;5036048;28;20041;-73
2021/04/22 09:49:16;;;;;;;3.35;1.67;;;10.40;57.20;;;;;;5035794;28;20057;-75
2021/04/22 09:51:45;;;;;;;4.10;1.48;;;10.40;57.10;;;;;;5038019;28;20053;-75
2021/04/22 09:54:28;;;;;;;1.60;1.23;;;10.50;57.10;;;;;;5035102;28;20033;-75
2021/04/22 09:56:56;;;;;;;2.13;1.40;;;10.60;56.70;;;;;;5034364;28;20017;-74
2021/04/22 09:59:25;;;;;;;2.38;0.90;;;10.60;56.70;;;;;;5035583;28;20025;-76
2021/04/22 10:02:03;;;;;;;1.23;1.10;;;10.80;56.60;;;;;;5035468;28;20021;-74
2021/04/22 10:04:43;;;;;;;1.55;1.45;;;11.20;56.00;;;;;;5035640;28;20482;-75
2021/04/22 10:07:22;;;;;;;1.40;1.02;;;11.50;55.60;;;;;;5035212;28;20447;-76
2021/04/22 10:09:52;;;;;;;2.17;1.20;;;11.70;55.30;;;;;;5036017;28;20025;-75
2021/04/22 10:12:27;;;;;;;4.10;2.83;;;11.70;55.00;;;;;;5034051;28;20025;-74
2021/04/22 10:14:54;;;;;;;1.73;1.30;;;11.30;55.30;;;;;;5034122;28;20041;-75
2021/04/22 10:17:24;;;;;;;2.65;1.50;;;10.90;56.10;;;;;;5034494;28;20021;-75
2021/04/22 10:19:59;;;;;;;1.95;1.20;;;10.80;56.40;;;;;;5035624;28;20029;-74
2021/04/22 10:22:30;;;;;;;2.40;1.40;;;10.70;56.40;;;;;;5034925;28;20482;-76
2021/04/22 10:25:00;;;;;;;2.13;1.38;;;10.70;56.40;;;;;;5033668;28;20428;-77
2021/04/22 10:27:27;;;;;;;1.50;1.40;;;10.90;56.10;;;;;;5035793;28;20036;-74
2021/04/22 10:29:54;;;;;;;1.50;1.40;;;11.00;55.70;;;;;;5034807;28;20032;-74
2021/04/22 10:32:22;;;;;;;1.52;1.23;;;11.10;55.60;;;;;;5035821;28;20366;-76
2021/04/22 10:34:50;;;;;;;1.13;0.90;;;11.10;55.40;;;;;;5035336;28;20036;-75
2021/04/22 10:37:16;;;;;;;2.13;1.05;;;11.20;55.50;;;;;;5035471;28;20482;-75
2021/04/22 10:39:42;;;;;;;0.90;0.90;;;11.20;55.40;;;;;;5032815;28;20026;-75
2021/04/22 10:42:09;;;;;;;2.72;1.05;;;11.20;55.50;;;;;;5034204;28;20030;-75
2021/04/22 10:44:37;;;;;;;2.65;0.80;;;11.20;55.40;;;;;;5035487;28;20036;-75
2021/04/22 10:47:03;;;;;;;1.15;1.00;;;11.40;55.30;;;;;;5035353;28;20021;-75
2021/04/22 10:49:29;;;;;;;2.85;1.45;;;11.60;55.10;;;;;;5034804;28;20508;-73
2021/04/22 10:51:54;;;;;;;3.80;2.08;;;11.60;54.90;;;;;;5034749;28;20034;-76
2021/04/22 10:54:20;;;;;;;2.53;1.60;;;11.60;54.80;;;;;;5034903;28;20462;-77
2021/04/22 10:56:47;;;;;;;2.80;1.10;;;11.60;54.60;;;;;;5035548;28;20033;-79
2021/04/22 10:59:22;;;;;;;2.42;1.15;;;11.60;54.70;;;;;;5032539;28;20508;-79
2021/04/22 11:01:48;;;;;;;1.27;1.13;;;11.70;54.50;;;;;;5035089;28;20079;-78
2021/04/22 11:04:15;;;;;;;1.48;0.80;;;11.90;54.50;;;;;;5034198;28;20030;-78
2021/04/22 11:06:43;;;;;;;1.58;1.38;;;12.00;54.30;;;;;;5035756;28;20031;-80
2021/04/22 11:09:18;;;;;;;1.27;0.70;;;12.30;54.20;;;;;;5035703;28;20025;-80
2021/04/22 11:12:03;;;;;;;0.95;0.85;;;12.50;53.90;;;;;;5034119;28;20025;-80
2021/04/22 11:14:46;;;;;;;1.33;1.23;;;12.70;53.80;;;;;;5036095;28;20026;-79
2021/04/22 11:17:12;;;;;;;4.40;1.55;;;12.50;54.00;;;;;;5035289;28;20076;-76
2021/04/22 11:19:48;;;;;;;3.42;1.70;;;12.40;53.20;;;;;;5033992;28;20488;-78
2021/04/22 11:22:20;;;;;;;3.88;1.40;;;12.20;53.20;;;;;;5034639;28;20049;-79
2021/04/22 11:24:57;;;;;;;2.67;1.30;;;12.10;53.80;;;;;;5034856;28;20021;-80
2021/04/22 11:27:25;;;;;;;0.95;0.90;;;12.20;53.70;;;;;;5034323;28;20025;-79
2021/04/22 11:29:58;;;;;;;1.48;1.00;;;12.40;53.50;;;;;;5034588;28;20108;-78
2021/04/22 11:32:28;;;;;;;1.17;0.93;;;12.60;53.30;;;;;;5034583;28;20025;-79
2021/04/22 11:35:05;;;;;;;0.77;0.70;;;12.80;53.20;;;;;;5032199;28;20374;-79
2021/04/22 11:37:33;;;;;;;0.73;0.73;;;13.00;53.10;;;;;;5034098;28;20029;-79
2021/04/22 11:40:10;;;;;;;0.60;0.60;;;13.10;53.00;;;;;;5032868;28;20014;-79
2021/04/22 11:42:42;;;;;;;1.52;1.40;;;13.50;53.00;;;;;;5032951;28;20106;-79
2021/04/22 11:45:09;;;;;;;0.80;0.60;;;13.90;53.10;;;;;;5034329;28;20030;-77
2021/04/22 11:47:35;;;;;;;1.17;1.15;;;14.00;52.30;;;;;;5033552;28;20042;-78
2021/04/22 11:50:12;;;;;;;1.27;0.90;;;14.30;52.10;;;;;;5033605;28;20029;-80
2021/04/22 11:52:47;;;;;;;1.30;1.20;;;14.50;51.70;;;;;;5034966;28;20029;-75
2021/04/22 11:55:40;;;;;;;2.22;1.55;;;14.40;51.30;;;;;;5040011;28;20044;-78
2021/04/22 11:58:10;;;;;;;2.08;1.13;;;14.30;51.70;;;;;;5039369;28;20030;-76
2021/04/22 12:00:39;;;;;;;2.85;1.13;;;14.50;51.50;;;;;;5038985;28;20037;-79
2021/04/22 12:03:06;;;;;;;1.85;1.20;;;14.80;51.00;;;;;;5032199;28;20064;-78
2021/04/22 12:05:33;;;;;;;2.00;1.40;;;15.00;50.50;;;;;;5036360;28;20028;-76
2021/04/22 12:08:07;;;;;;;1.83;1.20;;;14.90;50.10;;;;;;5033219;28;20033;-77
2021/04/22 12:10:36;;;;;;;1.25;1.25;;;15.00;50.40;;;;;;5033633;28;20113;-78
2021/04/22 12:13:08;;;;;;;1.05;0.80;;;15.30;50.00;;;;;;5033460;28;20021;-77
2021/04/22 12:15:39;;;;;;;2.17;0.82;;;15.60;49.70;;;;;;5032986;28;20025;-76
2021/04/22 12:18:07;;;;;;;1.27;0.95;;;15.90;49.40;;;;;;5033953;28;20323;-78
2021/04/22 12:20:33;;;;;;;3.10;1.63;;;16.40;49.00;;;;;;5036963;28;20056;-75
2021/04/22 12:22:59;;;;;;;3.15;1.33;;;16.70;48.00;;;;;;5033802;28;20053;-75
2021/04/22 12:25:26;;;;;;;2.63;1.58;;;16.30;48.10;;;;;;5033139;28;20497;-78
2021/04/22 12:27:59;;;;;;;3.03;1.20;;;15.50;48.80;;;;;;5033131;28;20032;-78
2021/04/22 12:30:36;;;;;;;1.38;0.95;;;15.00;50.00;;;;;;5032522;28;20383;-77
2021/04/22 12:33:15;;;;;;;1.63;1.20;;;15.30;50.00;;;;;;5032248;28;20076;-77
2021/04/22 12:35:44;;;;;;;1.50;1.40;;;15.80;49.10;;;;;;5029866;28;20030;-78
2021/04/22 12:38:24;;;;;;;2.25;1.20;;;15.70;49.00;;;;;;5033123;28;20022;-77
2021/04/22 12:40:59;;;;;;;2.60;0.90;;;15.90;48.90;;;;;;5033475;28;20018;-78
2021/04/22 12:43:26;;;;;;;1.05;0.80;;;15.60;49.10;;;;;;5024406;28;20018;-78
2021/04/22 12:45:53;;;;;;;1.15;0.88;;;15.30;49.40;;;;;;5032406;28;20413;-76
2021/04/22 12:48:19;;;;;;;1.75;0.90;;;15.50;49.60;;;;;;5026777;28;20056;-78
2021/04/22 12:50:47;;;;;;;1.02;0.80;;;16.10;49.00;;;;;;5011718;28;20045;-78
2021/04/22 12:53:13;;;;;;;0.70;0.70;;;16.70;48.10;;;;;;5013157;28;20030;-77
2021/04/22 12:55:58;;;;;;;1.20;1.08;;;17.00;47.70;;;;;;5013061;28;20026;-76